Mc Guire Air Force Base Wrightstown US
ICAO: KWRI
IATA: WRI
Category: Medium
Scheduled Services: No

Elevation: 131 ft
TransAlt. 18000 ft.

Airport Communications:
APP/DEP:124.15
ATIS:110.6
CLNC DEL:135.2
GND:121.8
FT DIX RNG:34
ARMY OPS:41.35
PMSV METRO:23.98
COMD POST:31.94
PTD:134.1
TWR:118.65

KWRI Zoom In..

If you have problems with the map follow the link
https://www.worldairports.se/pages/airport.php?
ICAO=KWRI

Runways:

(A) RW 06 length 10014 ft width 150 ft
ILS 110.10 / hdg 58

(B) RW 18 length 7126 ft width 150 ft
---- / hdg 185

(C) RW 24 length 10014 ft width 150 ft
ILS 110.10 / hdg 238

(D) RW 36 length 7126 ft width 150 ft
---- / hdg 5

Location; KWRI
Day. 19 / Time. 17.56 Zulu
* Altimeter: 29.79
* Temperature: 05° c. 41°f.
* Wind from: 290° Speed 15 kn with Gusts up to 21 kn.
Dewpoint: -04° c.
Visibility: 10 Statute Miles.
Clouds: Broken 4100 ft.

KWRI 191756Z 29015G21KT 10SM BKN041 05/M04 A2979 RMK AO2A PK WND 29028/15 SLP088 T00511042 10073 20014 51006 $


Wind From 290°
Speed 15 kn.

 
 
jpsmedia worldairports.se 2020   terms of use